sensor_id;sensor_type;location;lat;lon;timestamp;P1;durP1;ratioP1;P2;durP2;ratioP2
15412;SDS011;7805;49.554;7.632;2023-02-19T00:01:27;8.60;;;7.80;;
15412;SDS011;7805;49.554;7.632;2023-02-19T00:04:04;10.20;;;8.93;;
15412;SDS011;7805;49.554;7.632;2023-02-19T00:06:32;9.67;;;8.77;;
15412;SDS011;7805;49.554;7.632;2023-02-19T00:08:59;13.00;;;9.30;;
15412;SDS011;7805;49.554;7.632;2023-02-19T00:11:27;11.53;;;9.30;;
15412;SDS011;7805;49.554;7.632;2023-02-19T00:13:55;10.47;;;9.37;;
15412;SDS011;7805;49.554;7.632;2023-02-19T00:16:22;10.10;;;9.13;;
15412;SDS011;7805;49.554;7.632;2023-02-19T00:18:49;11.20;;;9.40;;
15412;SDS011;7805;49.554;7.632;2023-02-19T00:21:16;8.67;;;7.87;;
15412;SDS011;7805;49.554;7.632;2023-02-19T00:23:42;9.43;;;8.13;;
15412;SDS011;7805;49.554;7.632;2023-02-19T00:26:11;11.60;;;9.10;;
15412;SDS011;7805;49.554;7.632;2023-02-19T00:28:37;11.43;;;8.77;;
15412;SDS011;7805;49.554;7.632;2023-02-19T00:31:14;9.47;;;8.57;;
15412;SDS011;7805;49.554;7.632;2023-02-19T00:33:42;10.63;;;8.27;;
15412;SDS011;7805;49.554;7.632;2023-02-19T00:36:09;10.50;;;8.10;;
15412;SDS011;7805;49.554;7.632;2023-02-19T00:38:35;11.80;;;9.03;;
15412;SDS011;7805;49.554;7.632;2023-02-19T00:41:01;10.67;;;8.30;;
15412;SDS011;7805;49.554;7.632;2023-02-19T00:43:55;13.33;;;8.57;;
15412;SDS011;7805;49.554;7.632;2023-02-19T00:46:24;8.87;;;7.97;;
15412;SDS011;7805;49.554;7.632;2023-02-19T00:48:52;12.93;;;8.60;;
15412;SDS011;7805;49.554;7.632;2023-02-19T00:51:19;11.10;;;9.33;;
15412;SDS011;7805;49.554;7.632;2023-02-19T00:53:46;9.33;;;8.33;;
15412;SDS011;7805;49.554;7.632;2023-02-19T00:56:11;9.50;;;8.10;;
15412;SDS011;7805;49.554;7.632;2023-02-19T00:58:37;9.60;;;8.60;;
15412;SDS011;7805;49.554;7.632;2023-02-19T01:01:03;12.10;;;8.77;;
15412;SDS011;7805;49.554;7.632;2023-02-19T01:03:31;9.53;;;8.63;;
15412;SDS011;7805;49.554;7.632;2023-02-19T01:05:57;9.73;;;8.73;;
15412;SDS011;7805;49.554;7.632;2023-02-19T01:08:23;10.13;;;9.07;;
15412;SDS011;7805;49.554;7.632;2023-02-19T01:10:48;12.90;;;9.47;;
15412;SDS011;7805;49.554;7.632;2023-02-19T01:13:14;12.67;;;10.93;;
15412;SDS011;7805;49.554;7.632;2023-02-19T01:15:39;10.23;;;9.00;;
15412;SDS011;7805;49.554;7.632;2023-02-19T01:18:05;11.57;;;9.63;;
15412;SDS011;7805;49.554;7.632;2023-02-19T01:20:31;9.70;;;8.80;;
15412;SDS011;7805;49.554;7.632;2023-02-19T01:22:56;10.30;;;9.30;;
15412;SDS011;7805;49.554;7.632;2023-02-19T01:25:22;11.53;;;10.33;;
15412;SDS011;7805;49.554;7.632;2023-02-19T01:27:47;10.13;;;9.20;;
15412;SDS011;7805;49.554;7.632;2023-02-19T01:30:13;10.10;;;9.10;;
15412;SDS011;7805;49.554;7.632;2023-02-19T01:32:39;10.43;;;9.33;;
15412;SDS011;7805;49.554;7.632;2023-02-19T01:35:05;8.83;;;7.97;;
15412;SDS011;7805;49.554;7.632;2023-02-19T01:37:30;9.07;;;8.17;;
15412;SDS011;7805;49.554;7.632;2023-02-19T01:39:56;11.53;;;9.73;;
15412;SDS011;7805;49.554;7.632;2023-02-19T01:42:21;10.80;;;9.60;;
15412;SDS011;7805;49.554;7.632;2023-02-19T01:47:13;9.73;;;8.50;;
15412;SDS011;7805;49.554;7.632;2023-02-19T01:49:46;9.63;;;8.63;;
15412;SDS011;7805;49.554;7.632;2023-02-19T01:52:31;11.93;;;9.57;;
15412;SDS011;7805;49.554;7.632;2023-02-19T01:55:00;9.23;;;8.33;;
15412;SDS011;7805;49.554;7.632;2023-02-19T01:57:29;9.00;;;8.10;;
15412;SDS011;7805;49.554;7.632;2023-02-19T02:00:02;9.30;;;8.33;;
15412;SDS011;7805;49.554;7.632;2023-02-19T02:02:37;8.43;;;7.63;;
15412;SDS011;7805;49.554;7.632;2023-02-19T02:05:04;9.20;;;8.00;;
15412;SDS011;7805;49.554;7.632;2023-02-19T02:07:39;9.00;;;7.80;;
15412;SDS011;7805;49.554;7.632;2023-02-19T02:10:23;8.53;;;7.73;;
15412;SDS011;7805;49.554;7.632;2023-02-19T02:12:49;8.80;;;7.90;;
15412;SDS011;7805;49.554;7.632;2023-02-19T02:15:16;7.73;;;7.13;;
15412;SDS011;7805;49.554;7.632;2023-02-19T02:20:40;7.37;;;6.67;;
15412;SDS011;7805;49.554;7.632;2023-02-19T02:23:39;6.97;;;6.20;;
15412;SDS011;7805;49.554;7.632;2023-02-19T02:26:07;7.13;;;6.43;;
15412;SDS011;7805;49.554;7.632;2023-02-19T02:32:02;6.50;;;5.77;;
15412;SDS011;7805;49.554;7.632;2023-02-19T02:34:53;6.93;;;5.90;;
15412;SDS011;7805;49.554;7.632;2023-02-19T02:37:23;5.63;;;5.13;;
15412;SDS011;7805;49.554;7.632;2023-02-19T02:39:51;5.73;;;5.30;;
15412;SDS011;7805;49.554;7.632;2023-02-19T02:42:18;6.30;;;5.67;;
15412;SDS011;7805;49.554;7.632;2023-02-19T02:44:56;6.77;;;6.20;;
15412;SDS011;7805;49.554;7.632;2023-02-19T02:47:42;5.93;;;5.33;;
15412;SDS011;7805;49.554;7.632;2023-02-19T02:50:18;6.03;;;5.43;;
15412;SDS011;7805;49.554;7.632;2023-02-19T02:52:51;6.07;;;5.53;;
15412;SDS011;7805;49.554;7.632;2023-02-19T02:55:50;5.47;;;5.07;;
15412;SDS011;7805;49.554;7.632;2023-02-19T02:58:18;5.77;;;5.23;;
15412;SDS011;7805;49.554;7.632;2023-02-19T03:00:47;6.33;;;5.83;;
15412;SDS011;7805;49.554;7.632;2023-02-19T03:03:37;5.97;;;5.37;;
15412;SDS011;7805;49.554;7.632;2023-02-19T03:06:05;5.87;;;5.33;;
15412;SDS011;7805;49.554;7.632;2023-02-19T03:11:03;6.03;;;5.47;;
15412;SDS011;7805;49.554;7.632;2023-02-19T03:13:51;5.67;;;5.17;;
15412;SDS011;7805;49.554;7.632;2023-02-19T03:16:42;5.00;;;4.60;;
15412;SDS011;7805;49.554;7.632;2023-02-19T03:19:29;5.07;;;4.63;;
15412;SDS011;7805;49.554;7.632;2023-02-19T03:22:07;5.13;;;4.63;;
15412;SDS011;7805;49.554;7.632;2023-02-19T03:24:48;5.17;;;4.77;;
15412;SDS011;7805;49.554;7.632;2023-02-19T03:27:40;5.37;;;4.87;;
15412;SDS011;7805;49.554;7.632;2023-02-19T03:30:10;4.67;;;4.27;;
15412;SDS011;7805;49.554;7.632;2023-02-19T03:32:50;5.13;;;4.60;;
15412;SDS011;7805;49.554;7.632;2023-02-19T03:35:23;4.40;;;4.10;;
15412;SDS011;7805;49.554;7.632;2023-02-19T03:40:29;4.43;;;4.03;;
15412;SDS011;7805;49.554;7.632;2023-02-19T03:43:15;4.60;;;4.20;;
15412;SDS011;7805;49.554;7.632;2023-02-19T03:45:53;4.73;;;4.33;;
15412;SDS011;7805;49.554;7.632;2023-02-19T03:48:33;4.63;;;4.23;;
15412;SDS011;7805;49.554;7.632;2023-02-19T03:54:09;4.80;;;4.40;;
15412;SDS011;7805;49.554;7.632;2023-02-19T03:59:38;4.37;;;4.07;;
15412;SDS011;7805;49.554;7.632;2023-02-19T04:02:10;5.20;;;4.80;;
15412;SDS011;7805;49.554;7.632;2023-02-19T04:04:42;5.43;;;4.93;;
15412;SDS011;7805;49.554;7.632;2023-02-19T04:07:11;5.47;;;5.07;;
15412;SDS011;7805;49.554;7.632;2023-02-19T04:09:41;7.10;;;6.40;;
15412;SDS011;7805;49.554;7.632;2023-02-19T04:12:10;6.70;;;5.67;;
15412;SDS011;7805;49.554;7.632;2023-02-19T04:14:38;6.20;;;5.70;;
15412;SDS011;7805;49.554;7.632;2023-02-19T04:17:13;5.57;;;5.07;;
15412;SDS011;7805;49.554;7.632;2023-02-19T04:19:43;6.60;;;6.00;;
15412;SDS011;7805;49.554;7.632;2023-02-19T04:22:12;6.87;;;6.17;;
15412;SDS011;7805;49.554;7.632;2023-02-19T04:24:40;6.67;;;6.10;;
15412;SDS011;7805;49.554;7.632;2023-02-19T04:27:08;7.17;;;6.57;;
15412;SDS011;7805;49.554;7.632;2023-02-19T04:29:34;7.03;;;6.43;;
15412;SDS011;7805;49.554;7.632;2023-02-19T04:32:00;6.43;;;5.93;;
15412;SDS011;7805;49.554;7.632;2023-02-19T04:34:26;6.30;;;5.80;;
15412;SDS011;7805;49.554;7.632;2023-02-19T04:36:51;6.67;;;6.17;;
15412;SDS011;7805;49.554;7.632;2023-02-19T04:39:17;6.07;;;5.63;;
15412;SDS011;7805;49.554;7.632;2023-02-19T04:41:43;5.53;;;5.03;;
15412;SDS011;7805;49.554;7.632;2023-02-19T04:44:08;6.40;;;5.80;;
15412;SDS011;7805;49.554;7.632;2023-02-19T04:46:34;6.43;;;5.83;;
15412;SDS011;7805;49.554;7.632;2023-02-19T04:48:59;5.90;;;5.40;;
15412;SDS011;7805;49.554;7.632;2023-02-19T04:51:25;5.97;;;5.53;;
15412;SDS011;7805;49.554;7.632;2023-02-19T04:53:50;6.37;;;5.80;;
15412;SDS011;7805;49.554;7.632;2023-02-19T04:56:16;6.17;;;5.57;;
15412;SDS011;7805;49.554;7.632;2023-02-19T04:58:42;6.37;;;5.80;;
15412;SDS011;7805;49.554;7.632;2023-02-19T05:01:09;6.27;;;5.77;;
15412;SDS011;7805;49.554;7.632;2023-02-19T05:03:35;6.77;;;6.23;;
15412;SDS011;7805;49.554;7.632;2023-02-19T05:06:02;6.53;;;6.03;;
15412;SDS011;7805;49.554;7.632;2023-02-19T05:08:28;5.73;;;5.33;;
15412;SDS011;7805;49.554;7.632;2023-02-19T05:10:58;6.63;;;6.03;;
15412;SDS011;7805;49.554;7.632;2023-02-19T05:13:24;6.20;;;5.70;;
15412;SDS011;7805;49.554;7.632;2023-02-19T05:15:53;5.77;;;5.27;;
15412;SDS011;7805;49.554;7.632;2023-02-19T05:18:20;5.50;;;5.00;;
15412;SDS011;7805;49.554;7.632;2023-02-19T05:20:45;3.67;;;3.37;;
15412;SDS011;7805;49.554;7.632;2023-02-19T05:23:11;3.63;;;3.37;;
15412;SDS011;7805;49.554;7.632;2023-02-19T05:25:36;3.90;;;3.13;;
15412;SDS011;7805;49.554;7.632;2023-02-19T05:28:02;3.80;;;3.50;;
15412;SDS011;7805;49.554;7.632;2023-02-19T05:33:16;3.20;;;2.90;;
15412;SDS011;7805;49.554;7.632;2023-02-19T05:35:44;3.07;;;2.87;;
15412;SDS011;7805;49.554;7.632;2023-02-19T05:38:15;2.57;;;2.40;;
15412;SDS011;7805;49.554;7.632;2023-02-19T05:40:42;2.97;;;2.77;;
15412;SDS011;7805;49.554;7.632;2023-02-19T05:43:08;2.87;;;2.67;;
15412;SDS011;7805;49.554;7.632;2023-02-19T05:45:34;2.70;;;2.50;;
15412;SDS011;7805;49.554;7.632;2023-02-19T05:48:00;2.73;;;2.63;;
15412;SDS011;7805;49.554;7.632;2023-02-19T05:50:26;2.87;;;2.67;;
15412;SDS011;7805;49.554;7.632;2023-02-19T05:52:52;3.10;;;2.90;;
15412;SDS011;7805;49.554;7.632;2023-02-19T05:55:17;3.30;;;2.77;;
15412;SDS011;7805;49.554;7.632;2023-02-19T05:57:44;2.83;;;2.50;;
15412;SDS011;7805;49.554;7.632;2023-02-19T06:00:11;3.00;;;2.60;;
15412;SDS011;7805;49.554;7.632;2023-02-19T06:02:41;3.73;;;2.50;;
15412;SDS011;7805;49.554;7.632;2023-02-19T06:05:07;3.93;;;2.70;;
15412;SDS011;7805;49.554;7.632;2023-02-19T06:07:33;2.37;;;2.20;;
15412;SDS011;7805;49.554;7.632;2023-02-19T06:09:59;2.73;;;2.30;;
15412;SDS011;7805;49.554;7.632;2023-02-19T06:12:24;4.33;;;2.33;;
15412;SDS011;7805;49.554;7.632;2023-02-19T06:14:50;2.30;;;2.10;;
15412;SDS011;7805;49.554;7.632;2023-02-19T06:17:16;3.87;;;2.33;;
15412;SDS011;7805;49.554;7.632;2023-02-19T06:19:41;2.70;;;1.83;;
15412;SDS011;7805;49.554;7.632;2023-02-19T06:22:07;2.90;;;2.00;;
15412;SDS011;7805;49.554;7.632;2023-02-19T06:24:33;2.33;;;2.13;;
15412;SDS011;7805;49.554;7.632;2023-02-19T06:27:01;2.40;;;2.20;;
15412;SDS011;7805;49.554;7.632;2023-02-19T06:29:30;2.57;;;2.23;;
15412;SDS011;7805;49.554;7.632;2023-02-19T06:31:56;15.03;;;11.37;;
15412;SDS011;7805;49.554;7.632;2023-02-19T06:34:22;12.57;;;7.70;;
15412;SDS011;7805;49.554;7.632;2023-02-19T06:36:48;5.97;;;3.83;;
15412;SDS011;7805;49.554;7.632;2023-02-19T06:39:14;2.67;;;2.33;;
15412;SDS011;7805;49.554;7.632;2023-02-19T06:41:39;3.10;;;2.60;;
15412;SDS011;7805;49.554;7.632;2023-02-19T06:44:05;2.97;;;2.50;;
15412;SDS011;7805;49.554;7.632;2023-02-19T06:46:30;3.00;;;2.80;;
15412;SDS011;7805;49.554;7.632;2023-02-19T06:48:56;3.00;;;2.70;;
15412;SDS011;7805;49.554;7.632;2023-02-19T06:51:21;3.23;;;2.63;;
15412;SDS011;7805;49.554;7.632;2023-02-19T06:53:50;2.80;;;2.50;;
15412;SDS011;7805;49.554;7.632;2023-02-19T06:58:52;3.30;;;2.80;;
15412;SDS011;7805;49.554;7.632;2023-02-19T07:01:19;3.33;;;2.87;;
15412;SDS011;7805;49.554;7.632;2023-02-19T07:03:46;5.57;;;5.03;;
15412;SDS011;7805;49.554;7.632;2023-02-19T07:06:12;3.97;;;3.67;;
15412;SDS011;7805;49.554;7.632;2023-02-19T07:08:37;4.63;;;3.30;;
15412;SDS011;7805;49.554;7.632;2023-02-19T07:11:03;4.63;;;3.90;;
15412;SDS011;7805;49.554;7.632;2023-02-19T07:13:29;4.40;;;3.50;;
15412;SDS011;7805;49.554;7.632;2023-02-19T07:16:02;4.73;;;3.57;;
15412;SDS011;7805;49.554;7.632;2023-02-19T07:18:30;4.53;;;3.57;;
15412;SDS011;7805;49.554;7.632;2023-02-19T07:21:02;4.07;;;3.77;;
15412;SDS011;7805;49.554;7.632;2023-02-19T07:23:29;4.37;;;2.77;;
15412;SDS011;7805;49.554;7.632;2023-02-19T07:25:54;4.83;;;3.40;;
15412;SDS011;7805;49.554;7.632;2023-02-19T07:28:20;7.93;;;6.87;;
15412;SDS011;7805;49.554;7.632;2023-02-19T07:30:46;4.50;;;3.97;;
15412;SDS011;7805;49.554;7.632;2023-02-19T07:33:11;3.37;;;2.77;;
15412;SDS011;7805;49.554;7.632;2023-02-19T07:35:37;5.83;;;3.10;;
15412;SDS011;7805;49.554;7.632;2023-02-19T07:38:08;4.30;;;2.80;;
15412;SDS011;7805;49.554;7.632;2023-02-19T07:40:34;3.37;;;2.80;;
15412;SDS011;7805;49.554;7.632;2023-02-19T07:43:00;3.67;;;2.73;;
15412;SDS011;7805;49.554;7.632;2023-02-19T07:45:26;2.87;;;2.23;;
15412;SDS011;7805;49.554;7.632;2023-02-19T07:47:51;4.50;;;2.63;;
15412;SDS011;7805;49.554;7.632;2023-02-19T07:50:17;3.43;;;3.00;;
15412;SDS011;7805;49.554;7.632;2023-02-19T07:52:43;5.37;;;2.53;;
15412;SDS011;7805;49.554;7.632;2023-02-19T07:55:08;4.20;;;3.13;;
15412;SDS011;7805;49.554;7.632;2023-02-19T07:57:34;3.97;;;3.67;;
15412;SDS011;7805;49.554;7.632;2023-02-19T07:59:59;7.87;;;3.13;;
15412;SDS011;7805;49.554;7.632;2023-02-19T08:02:25;4.07;;;2.53;;
15412;SDS011;7805;49.554;7.632;2023-02-19T08:05:09;4.63;;;3.00;;
15412;SDS011;7805;49.554;7.632;2023-02-19T08:07:35;4.70;;;3.87;;
15412;SDS011;7805;49.554;7.632;2023-02-19T08:10:02;5.97;;;4.73;;
15412;SDS011;7805;49.554;7.632;2023-02-19T08:12:56;4.53;;;3.10;;
15412;SDS011;7805;49.554;7.632;2023-02-19T08:15:42;5.17;;;4.07;;
15412;SDS011;7805;49.554;7.632;2023-02-19T08:18:08;3.83;;;2.83;;
15412;SDS011;7805;49.554;7.632;2023-02-19T08:20:34;5.53;;;4.03;;
15412;SDS011;7805;49.554;7.632;2023-02-19T08:22:59;6.10;;;3.40;;
15412;SDS011;7805;49.554;7.632;2023-02-19T08:25:25;3.43;;;3.13;;
15412;SDS011;7805;49.554;7.632;2023-02-19T08:27:51;3.93;;;3.47;;
15412;SDS011;7805;49.554;7.632;2023-02-19T08:30:16;6.60;;;3.60;;
15412;SDS011;7805;49.554;7.632;2023-02-19T08:32:42;4.70;;;3.30;;
15412;SDS011;7805;49.554;7.632;2023-02-19T08:35:08;5.20;;;3.50;;
15412;SDS011;7805;49.554;7.632;2023-02-19T08:37:33;6.67;;;3.00;;
15412;SDS011;7805;49.554;7.632;2023-02-19T08:39:59;4.57;;;2.70;;
15412;SDS011;7805;49.554;7.632;2023-02-19T08:42:24;5.03;;;3.13;;
15412;SDS011;7805;49.554;7.632;2023-02-19T08:44:51;3.07;;;2.73;;
15412;SDS011;7805;49.554;7.632;2023-02-19T08:47:17;5.73;;;2.80;;
15412;SDS011;7805;49.554;7.632;2023-02-19T08:49:42;4.87;;;2.70;;
15412;SDS011;7805;49.554;7.632;2023-02-19T08:52:08;4.80;;;2.53;;
15412;SDS011;7805;49.554;7.632;2023-02-19T08:54:34;5.60;;;2.67;;
15412;SDS011;7805;49.554;7.632;2023-02-19T08:56:59;5.33;;;2.60;;
15412;SDS011;7805;49.554;7.632;2023-02-19T08:59:27;7.30;;;3.20;;
15412;SDS011;7805;49.554;7.632;2023-02-19T09:01:52;7.33;;;2.80;;
15412;SDS011;7805;49.554;7.632;2023-02-19T09:04:18;7.07;;;3.53;;
15412;SDS011;7805;49.554;7.632;2023-02-19T09:06:44;4.50;;;2.60;;
15412;SDS011;7805;49.554;7.632;2023-02-19T09:09:09;4.30;;;2.50;;
15412;SDS011;7805;49.554;7.632;2023-02-19T09:11:37;2.67;;;2.23;;
15412;SDS011;7805;49.554;7.632;2023-02-19T09:14:03;3.37;;;2.03;;
15412;SDS011;7805;49.554;7.632;2023-02-19T09:16:31;4.27;;;2.20;;
15412;SDS011;7805;49.554;7.632;2023-02-19T09:18:57;4.50;;;1.83;;
15412;SDS011;7805;49.554;7.632;2023-02-19T09:21:23;19.33;;;13.73;;
15412;SDS011;7805;49.554;7.632;2023-02-19T09:23:48;24.63;;;14.53;;
15412;SDS011;7805;49.554;7.632;2023-02-19T09:26:14;5.10;;;2.20;;
15412;SDS011;7805;49.554;7.632;2023-02-19T09:28:39;5.17;;;2.10;;
15412;SDS011;7805;49.554;7.632;2023-02-19T09:31:06;7.13;;;3.97;;
15412;SDS011;7805;49.554;7.632;2023-02-19T09:33:32;4.80;;;2.73;;
15412;SDS011;7805;49.554;7.632;2023-02-19T09:35:58;4.27;;;2.23;;
15412;SDS011;7805;49.554;7.632;2023-02-19T09:38:24;3.13;;;1.80;;
15412;SDS011;7805;49.554;7.632;2023-02-19T09:40:50;3.20;;;2.40;;
15412;SDS011;7805;49.554;7.632;2023-02-19T09:43:19;3.03;;;2.60;;
15412;SDS011;7805;49.554;7.632;2023-02-19T09:45:49;5.00;;;2.40;;
15412;SDS011;7805;49.554;7.632;2023-02-19T09:48:33;3.67;;;1.97;;
15412;SDS011;7805;49.554;7.632;2023-02-19T09:50:59;4.53;;;1.90;;
15412;SDS011;7805;49.554;7.632;2023-02-19T09:53:28;2.10;;;1.70;;
15412;SDS011;7805;49.554;7.632;2023-02-19T09:56:04;4.43;;;1.90;;
15412;SDS011;7805;49.554;7.632;2023-02-19T09:58:34;3.80;;;2.30;;
15412;SDS011;7805;49.554;7.632;2023-02-19T10:01:07;6.57;;;2.20;;
15412;SDS011;7805;49.554;7.632;2023-02-19T10:03:39;3.13;;;1.80;;
15412;SDS011;7805;49.554;7.632;2023-02-19T10:06:14;2.33;;;1.77;;
15412;SDS011;7805;49.554;7.632;2023-02-19T10:08:47;3.03;;;1.80;;
15412;SDS011;7805;49.554;7.632;2023-02-19T10:11:15;2.03;;;1.80;;
15412;SDS011;7805;49.554;7.632;2023-02-19T10:16:10;4.90;;;2.30;;
15412;SDS011;7805;49.554;7.632;2023-02-19T10:18:41;4.43;;;2.47;;
15412;SDS011;7805;49.554;7.632;2023-02-19T10:21:17;3.37;;;2.17;;
15412;SDS011;7805;49.554;7.632;2023-02-19T10:23:49;4.13;;;2.00;;
15412;SDS011;7805;49.554;7.632;2023-02-19T10:26:18;2.97;;;2.07;;
15412;SDS011;7805;49.554;7.632;2023-02-19T10:28:44;3.20;;;1.73;;
15412;SDS011;7805;49.554;7.632;2023-02-19T10:31:16;3.47;;;1.80;;
15412;SDS011;7805;49.554;7.632;2023-02-19T10:33:51;4.07;;;1.80;;
15412;SDS011;7805;49.554;7.632;2023-02-19T10:36:30;2.23;;;1.80;;
15412;SDS011;7805;49.554;7.632;2023-02-19T10:38:57;4.10;;;2.27;;
15412;SDS011;7805;49.554;7.632;2023-02-19T10:41:24;2.60;;;2.00;;
15412;SDS011;7805;49.554;7.632;2023-02-19T10:43:56;4.63;;;2.40;;
15412;SDS011;7805;49.554;7.632;2023-02-19T10:46:31;2.43;;;1.97;;
15412;SDS011;7805;49.554;7.632;2023-02-19T10:49:00;5.27;;;3.20;;
15412;SDS011;7805;49.554;7.632;2023-02-19T10:51:38;5.97;;;2.30;;
15412;SDS011;7805;49.554;7.632;2023-02-19T10:56:41;4.07;;;2.50;;
15412;SDS011;7805;49.554;7.632;2023-02-19T10:59:14;2.93;;;2.03;;
15412;SDS011;7805;49.554;7.632;2023-02-19T11:02:14;6.80;;;2.60;;
15412;SDS011;7805;49.554;7.632;2023-02-19T11:04:39;4.67;;;2.20;;
15412;SDS011;7805;49.554;7.632;2023-02-19T11:07:13;5.53;;;2.90;;
15412;SDS011;7805;49.554;7.632;2023-02-19T11:09:45;5.37;;;2.33;;
15412;SDS011;7805;49.554;7.632;2023-02-19T11:12:13;6.10;;;2.20;;
15412;SDS011;7805;49.554;7.632;2023-02-19T11:14:49;4.43;;;2.13;;
15412;SDS011;7805;49.554;7.632;2023-02-19T11:17:28;8.13;;;2.70;;
15412;SDS011;7805;49.554;7.632;2023-02-19T11:19:58;3.80;;;2.07;;
15412;SDS011;7805;49.554;7.632;2023-02-19T11:25:13;5.83;;;2.10;;
15412;SDS011;7805;49.554;7.632;2023-02-19T11:28:00;5.00;;;2.43;;
15412;SDS011;7805;49.554;7.632;2023-02-19T11:30:32;6.10;;;2.63;;
15412;SDS011;7805;49.554;7.632;2023-02-19T11:33:33;6.87;;;2.73;;
15412;SDS011;7805;49.554;7.632;2023-02-19T11:38:38;4.73;;;2.10;;
15412;SDS011;7805;49.554;7.632;2023-02-19T11:41:10;5.13;;;2.17;;
15412;SDS011;7805;49.554;7.632;2023-02-19T11:46:48;4.83;;;2.27;;
15412;SDS011;7805;49.554;7.632;2023-02-19T11:55:50;4.90;;;2.27;;
15412;SDS011;7805;49.554;7.632;2023-02-19T11:58:40;4.67;;;2.33;;
15412;SDS011;7805;49.554;7.632;2023-02-19T12:01:43;6.23;;;2.57;;
15412;SDS011;7805;49.554;7.632;2023-02-19T12:16:49;5.27;;;1.73;;
15412;SDS011;7805;49.554;7.632;2023-02-19T12:19:38;6.60;;;2.17;;
15412;SDS011;7805;49.554;7.632;2023-02-19T12:24:55;8.03;;;1.90;;
15412;SDS011;7805;49.554;7.632;2023-02-19T12:27:32;4.50;;;2.43;;
15412;SDS011;7805;49.554;7.632;2023-02-19T12:38:50;5.67;;;1.60;;
15412;SDS011;7805;49.554;7.632;2023-02-19T12:43:58;4.30;;;1.97;;
15412;SDS011;7805;49.554;7.632;2023-02-19T12:46:33;5.33;;;2.20;;
15412;SDS011;7805;49.554;7.632;2023-02-19T12:49:09;4.77;;;2.20;;
15412;SDS011;7805;49.554;7.632;2023-02-19T12:51:48;7.63;;;2.40;;
15412;SDS011;7805;49.554;7.632;2023-02-19T12:54:26;7.23;;;2.40;;
15412;SDS011;7805;49.554;7.632;2023-02-19T12:57:05;4.43;;;2.40;;
15412;SDS011;7805;49.554;7.632;2023-02-19T13:02:40;7.97;;;3.90;;
15412;SDS011;7805;49.554;7.632;2023-02-19T13:05:27;6.40;;;2.67;;
15412;SDS011;7805;49.554;7.632;2023-02-19T13:10:39;4.03;;;2.10;;
15412;SDS011;7805;49.554;7.632;2023-02-19T13:13:06;4.83;;;2.43;;
15412;SDS011;7805;49.554;7.632;2023-02-19T13:15:45;6.37;;;2.93;;
15412;SDS011;7805;49.554;7.632;2023-02-19T13:21:08;6.87;;;3.67;;
15412;SDS011;7805;49.554;7.632;2023-02-19T13:23:35;6.60;;;2.97;;
15412;SDS011;7805;49.554;7.632;2023-02-19T13:37:24;4.10;;;2.60;;
15412;SDS011;7805;49.554;7.632;2023-02-19T13:39:53;4.17;;;2.30;;
15412;SDS011;7805;49.554;7.632;2023-02-19T13:42:32;3.43;;;2.07;;
15412;SDS011;7805;49.554;7.632;2023-02-19T13:45:00;8.20;;;2.70;;
15412;SDS011;7805;49.554;7.632;2023-02-19T13:50:23;5.17;;;2.30;;
15412;SDS011;7805;49.554;7.632;2023-02-19T13:52:51;6.83;;;2.43;;
15412;SDS011;7805;49.554;7.632;2023-02-19T14:00:57;4.33;;;2.60;;
15412;SDS011;7805;49.554;7.632;2023-02-19T14:06:11;8.30;;;2.97;;
15412;SDS011;7805;49.554;7.632;2023-02-19T14:17:03;8.43;;;2.50;;
15412;SDS011;7805;49.554;7.632;2023-02-19T14:19:50;5.10;;;2.50;;
15412;SDS011;7805;49.554;7.632;2023-02-19T14:33:23;7.43;;;2.70;;
15412;SDS011;7805;49.554;7.632;2023-02-19T14:38:50;9.77;;;2.70;;
15412;SDS011;7805;49.554;7.632;2023-02-19T14:41:37;7.33;;;2.37;;
15412;SDS011;7805;49.554;7.632;2023-02-19T14:44:27;4.80;;;2.10;;
15412;SDS011;7805;49.554;7.632;2023-02-19T14:46:58;5.27;;;2.63;;
15412;SDS011;7805;49.554;7.632;2023-02-19T14:52:07;5.37;;;2.47;;
15412;SDS011;7805;49.554;7.632;2023-02-19T14:54:44;5.57;;;2.17;;
15412;SDS011;7805;49.554;7.632;2023-02-19T14:57:17;3.97;;;2.70;;
15412;SDS011;7805;49.554;7.632;2023-02-19T14:59:53;7.17;;;4.00;;
15412;SDS011;7805;49.554;7.632;2023-02-19T15:02:22;8.73;;;4.20;;
15412;SDS011;7805;49.554;7.632;2023-02-19T15:04:49;10.37;;;4.10;;
15412;SDS011;7805;49.554;7.632;2023-02-19T15:07:17;7.90;;;3.93;;
15412;SDS011;7805;49.554;7.632;2023-02-19T15:09:50;10.00;;;6.07;;
15412;SDS011;7805;49.554;7.632;2023-02-19T15:12:22;4.93;;;2.20;;
15412;SDS011;7805;49.554;7.632;2023-02-19T15:14:50;6.93;;;2.90;;
15412;SDS011;7805;49.554;7.632;2023-02-19T15:17:26;7.73;;;3.50;;
15412;SDS011;7805;49.554;7.632;2023-02-19T15:19:54;5.03;;;3.00;;
15412;SDS011;7805;49.554;7.632;2023-02-19T15:22:23;6.03;;;2.70;;
15412;SDS011;7805;49.554;7.632;2023-02-19T15:24:49;2.83;;;2.33;;
15412;SDS011;7805;49.554;7.632;2023-02-19T15:27:16;7.47;;;2.50;;
15412;SDS011;7805;49.554;7.632;2023-02-19T15:29:47;6.10;;;3.73;;
15412;SDS011;7805;49.554;7.632;2023-02-19T15:32:16;6.70;;;2.90;;
15412;SDS011;7805;49.554;7.632;2023-02-19T15:34:54;8.67;;;3.97;;
15412;SDS011;7805;49.554;7.632;2023-02-19T15:37:22;7.60;;;4.03;;
15412;SDS011;7805;49.554;7.632;2023-02-19T15:39:53;4.67;;;2.50;;
15412;SDS011;7805;49.554;7.632;2023-02-19T15:42:24;7.63;;;2.37;;
15412;SDS011;7805;49.554;7.632;2023-02-19T15:47:41;5.73;;;2.40;;
15412;SDS011;7805;49.554;7.632;2023-02-19T15:58:40;3.57;;;2.53;;
15412;SDS011;7805;49.554;7.632;2023-02-19T16:03:49;5.17;;;2.47;;
15412;SDS011;7805;49.554;7.632;2023-02-19T16:06:16;4.90;;;2.23;;
15412;SDS011;7805;49.554;7.632;2023-02-19T16:08:43;4.50;;;2.30;;
15412;SDS011;7805;49.554;7.632;2023-02-19T16:13:48;6.23;;;2.77;;
15412;SDS011;7805;49.554;7.632;2023-02-19T16:16:17;6.47;;;2.60;;
15412;SDS011;7805;49.554;7.632;2023-02-19T16:18:54;6.90;;;3.20;;
15412;SDS011;7805;49.554;7.632;2023-02-19T16:21:22;6.37;;;3.43;;
15412;SDS011;7805;49.554;7.632;2023-02-19T16:24:03;7.17;;;2.87;;
15412;SDS011;7805;49.554;7.632;2023-02-19T16:26:41;6.73;;;2.93;;
15412;SDS011;7805;49.554;7.632;2023-02-19T16:31:46;9.73;;;4.33;;
15412;SDS011;7805;49.554;7.632;2023-02-19T16:34:33;5.37;;;2.43;;
15412;SDS011;7805;49.554;7.632;2023-02-19T16:37:28;4.97;;;2.83;;
15412;SDS011;7805;49.554;7.632;2023-02-19T16:45:14;12.10;;;6.63;;
15412;SDS011;7805;49.554;7.632;2023-02-19T16:47:40;18.73;;;6.83;;
15412;SDS011;7805;49.554;7.632;2023-02-19T16:50:14;14.57;;;5.53;;
15412;SDS011;7805;49.554;7.632;2023-02-19T16:52:54;10.33;;;5.33;;
15412;SDS011;7805;49.554;7.632;2023-02-19T16:55:22;10.07;;;4.53;;
15412;SDS011;7805;49.554;7.632;2023-02-19T16:57:48;8.10;;;4.47;;
15412;SDS011;7805;49.554;7.632;2023-02-19T17:00:25;5.53;;;2.67;;
15412;SDS011;7805;49.554;7.632;2023-02-19T17:02:53;6.77;;;3.40;;
15412;SDS011;7805;49.554;7.632;2023-02-19T17:05:21;9.57;;;5.53;;
15412;SDS011;7805;49.554;7.632;2023-02-19T17:07:49;5.97;;;3.13;;
15412;SDS011;7805;49.554;7.632;2023-02-19T17:10:15;6.53;;;3.37;;
15412;SDS011;7805;49.554;7.632;2023-02-19T17:12:42;5.37;;;2.73;;
15412;SDS011;7805;49.554;7.632;2023-02-19T17:15:08;9.27;;;3.57;;
15412;SDS011;7805;49.554;7.632;2023-02-19T17:17:33;3.77;;;2.67;;
15412;SDS011;7805;49.554;7.632;2023-02-19T17:19:59;8.97;;;3.13;;
15412;SDS011;7805;49.554;7.632;2023-02-19T17:22:24;5.93;;;3.70;;
15412;SDS011;7805;49.554;7.632;2023-02-19T17:24:50;5.13;;;3.40;;
15412;SDS011;7805;49.554;7.632;2023-02-19T17:27:15;6.50;;;3.20;;
15412;SDS011;7805;49.554;7.632;2023-02-19T17:29:41;4.47;;;2.77;;
15412;SDS011;7805;49.554;7.632;2023-02-19T17:32:07;8.30;;;3.07;;
15412;SDS011;7805;49.554;7.632;2023-02-19T17:34:33;10.87;;;4.27;;
15412;SDS011;7805;49.554;7.632;2023-02-19T17:36:58;6.77;;;3.40;;
15412;SDS011;7805;49.554;7.632;2023-02-19T17:39:30;7.57;;;4.60;;
15412;SDS011;7805;49.554;7.632;2023-02-19T17:41:56;8.50;;;4.20;;
15412;SDS011;7805;49.554;7.632;2023-02-19T17:44:21;8.53;;;3.93;;
15412;SDS011;7805;49.554;7.632;2023-02-19T17:46:47;10.67;;;3.97;;
15412;SDS011;7805;49.554;7.632;2023-02-19T17:49:13;7.43;;;4.50;;
15412;SDS011;7805;49.554;7.632;2023-02-19T17:51:38;12.20;;;4.53;;